< < Back
Terminal Aerodrome Forecast


Current Version              Previous Versions:   1  2  3  4  5  6  7  8  9  

Terminal Aerodrome Forecast

824
FTUS44 KBMX 062000 AAA
TAFBHM
TAF AMD
KBHM 062000Z 0620/0718 35011KT P6SM BKN070
     FM070200 33004KT P6SM SKC
     FM071400 29010KT P6SM SKC=

Latest METAR

212
SAUS70 KWBC 062000 RRB
MTRBHM
METAR KBHM 061953Z 35008KT 10SM BKN070 22/06 A3001 RMK AO2 SLP159
T02170056


USA.gov is the U.S. government's official web portal to all federal, state and local government web resources and services.